This is the latest recevied weather packets stored in our database for station/object K9YK-13. If no packets are shown the sender has not sent any weather packets the latest 10 day(s).
| Time | Temp. | Humidity | Pressure | Rain* | Wind** | Luminosity | Snow |
|---|---|---|---|---|---|---|---|
| 1778016670 | 11.67° C | 94% | 0 hPa | 0 mm | - | - | - |
| 1778015770 | 11.11° C | 95% | 0 hPa | 0 mm | - | - | - |
| 1778014870 | 10.56° C | 96% | 0 hPa | 0 mm | - | - | - |
| 1778014270 | 11.67° C | 89% | 0 hPa | 0 mm | - | - | - |
| 1778013369 | 12.22° C | 88% | 0 hPa | 0 mm | - | - | - |
| 1778013069 | 11.11° C | 88% | 0 hPa | 0 mm | - | - | - |
| 1778012770 | 11.67° C | 89% | 0 hPa | 0 mm | - | - | - |
| 1778012470 | 11.67° C | 89% | 0 hPa | 0 mm | - | - | - |
| 1778012170 | 11.11° C | 90% | 0 hPa | 0 mm | - | - | - |
| 1778011869 | 11.11° C | 91% | 0 hPa | 0 mm | - | - | - |
| 1778011569 | 11.11° C | 92% | 0 hPa | 0 mm | - | - | - |
| 1778011270 | 10° C | 92% | 0 hPa | 0 mm | - | - | - |
| 1778010970 | 10.56° C | 88% | 0 hPa | 0 mm | - | - | - |
| 1778009770 | 11.67° C | 82% | 0 hPa | 0 mm | - | - | - |
| 1778009470 | 11.67° C | 82% | 0 hPa | 0 mm | - | - | - |
| 1778009169 | 12.22° C | 81% | 0 hPa | 0 mm | - | - | - |
| 1778008870 | 12.78° C | 80% | 0 hPa | 0 mm | - | - | - |
| 1778008570 | 12.22° C | 81% | 0 hPa | 0 mm | - | - | - |
| 1778008270 | 11.67° C | 80% | 0 hPa | 0 mm | - | - | - |
| 1778007970 | 11.67° C | 78% | 0 hPa | 0 mm | - | - | - |
| 1778007370 | 12.22° C | 76% | 0 hPa | 0 mm | - | - | - |
| 1778006170 | 12.78° C | 75% | 0 hPa | 0 mm | - | - | - |
| 1778005869 | 11.67° C | 73% | 0 hPa | 0 mm | - | - | - |
| 1778005570 | 12.78° C | 73% | 0 hPa | 0 mm | - | - | - |
| 1778005270 | 12.78° C | 72% | 0 hPa | 0 mm | - | - | - |
* Rain latest hour (hover to see other rain measurements)
** Current wind speed in m/s (hover to see current wind gust speed)